createdAt,value
2017-07-22T00:00:34.581Z,84.95
2017-07-22T00:01:15.175Z,84.95
2017-07-22T00:01:55.579Z,84.86
2017-07-22T00:02:36.064Z,84.86
2017-07-22T00:03:16.586Z,84.77
2017-07-22T00:03:57.100Z,85.05
2017-07-22T00:04:37.591Z,85.05
2017-07-22T00:05:18.067Z,85.15
2017-07-22T00:05:58.595Z,85.44
2017-07-22T00:06:39.123Z,85.05
2017-07-22T00:07:19.604Z,85.25
2017-07-22T00:08:00.109Z,84.95
2017-07-22T00:08:40.622Z,84.86
2017-07-22T00:09:21.102Z,85.35
2017-07-22T00:10:01.597Z,84.57
2017-07-22T00:10:42.069Z,85.35
2017-07-22T00:11:22.586Z,84.57
2017-07-22T00:12:03.066Z,85.15
2017-07-22T00:12:43.558Z,85.05
2017-07-22T00:13:24.087Z,84.57
2017-07-22T00:14:04.570Z,85.15
2017-07-22T00:14:45.066Z,84.77
2017-07-22T00:15:25.546Z,84.95
2017-07-22T00:16:06.036Z,84.57
2017-07-22T00:16:46.541Z,84.67
2017-07-22T00:17:27.041Z,84.57
2017-07-22T00:18:07.547Z,84.57
2017-07-22T00:18:48.058Z,84.67
2017-07-22T00:19:28.537Z,85.15
2017-07-22T00:20:09.037Z,85.35
2017-07-22T00:20:49.532Z,85.15
2017-07-22T00:21:30.099Z,84.77
2017-07-22T00:22:10.557Z,85.53
2017-07-22T00:22:51.059Z,84.86
2017-07-22T00:23:31.550Z,85.35
2017-07-22T00:24:12.267Z,84.95
2017-07-22T00:24:52.740Z,85.05
2017-07-22T00:25:33.247Z,84.77
2017-07-22T00:26:13.770Z,85.15
2017-07-22T00:26:54.208Z,84.67
2017-07-22T00:27:34.854Z,84.86
2017-07-22T00:28:15.349Z,84.95
2017-07-22T00:28:55.865Z,85.25
2017-07-22T00:29:36.297Z,84.63
2017-07-22T00:30:16.916Z,85.11
2017-07-22T00:30:57.298Z,84.95
2017-07-22T00:31:37.774Z,85.05
2017-07-22T00:32:18.292Z,85.01
2017-07-22T00:32:58.782Z,85.44
2017-07-22T00:33:39.271Z,85.11
2017-07-22T00:34:19.792Z,85.11
2017-07-22T00:35:00.335Z,85.15
2017-07-22T00:35:40.823Z,85.25
2017-07-22T00:36:21.394Z,84.86
2017-07-22T00:37:02.366Z,85.15
2017-07-22T00:37:42.832Z,84.95
2017-07-22T00:38:23.361Z,84.67
2017-07-22T00:39:03.838Z,84.09
2017-07-22T00:39:44.360Z,84.09
2017-07-22T00:40:24.868Z,84.57
2017-07-22T00:41:05.293Z,84.38
2017-07-22T00:41:45.820Z,84.67
2017-07-22T00:42:26.315Z,84.91
2017-07-22T00:43:06.792Z,84.33
2017-07-22T00:43:47.276Z,84.53
2017-07-22T00:44:27.796Z,84.63
2017-07-22T00:45:08.316Z,84.53
2017-07-22T00:45:48.739Z,84.82
2017-07-22T00:46:29.260Z,85.01
2017-07-22T00:47:09.749Z,84.82
2017-07-22T00:47:50.283Z,85.88
2017-07-22T00:48:30.817Z,84.91
2017-07-22T00:49:11.296Z,85.69
2017-07-22T00:49:51.774Z,84.72
2017-07-22T00:50:32.324Z,84.82
2017-07-22T00:51:12.764Z,85.3
2017-07-22T00:51:53.294Z,84.63
2017-07-22T00:52:33.813Z,84.72
2017-07-22T00:53:14.307Z,85.01
2017-07-22T00:53:54.837Z,84.82
2017-07-22T00:54:35.323Z,85.01
2017-07-22T00:55:15.820Z,84.63
2017-07-22T00:55:56.329Z,84.53
2017-07-22T00:56:36.892Z,84.33
2017-07-22T00:57:17.352Z,84.33
2017-07-22T00:57:57.850Z,84.05
2017-07-22T00:58:38.323Z,84.53
2017-07-22T00:59:19.030Z,84.43
2017-07-22T00:59:59.491Z,84.63
2017-07-22T01:00:39.973Z,84.33
2017-07-22T01:01:20.581Z,84.91
2017-07-22T01:02:00.981Z,84.53
2017-07-22T01:02:41.478Z,84.72
2017-07-22T01:03:22.023Z,84.43
2017-07-22T01:04:02.476Z,84.43
2017-07-22T01:04:42.941Z,84.63
2017-07-22T01:05:23.417Z,84.63
2017-07-22T01:06:03.961Z,84.63
2017-07-22T01:06:44.416Z,84.33
2017-07-22T01:07:24.888Z,84.05
2017-07-22T01:08:05.951Z,84.33
2017-07-22T01:08:46.452Z,84.14
2017-07-22T01:09:26.971Z,84.05
2017-07-22T01:10:07.438Z,84.33
2017-07-22T01:10:47.952Z,84.63
2017-07-22T01:11:28.432Z,84.91
2017-07-22T01:12:08.951Z,84.14
2017-07-22T01:12:49.490Z,84.24
2017-07-22T01:13:29.920Z,84.68
2017-07-22T01:14:10.420Z,84.48
2017-07-22T01:14:50.874Z,84.88
2017-07-22T01:15:31.359Z,84.39
2017-07-22T01:16:11.837Z,84.97
2017-07-22T01:16:52.356Z,85.06
2017-07-22T01:17:32.833Z,85.06
2017-07-22T01:18:13.351Z,85.69
2017-07-22T01:18:53.844Z,84.91
2017-07-22T01:19:34.354Z,85.21
2017-07-22T01:20:14.858Z,85.01
2017-07-22T01:20:55.339Z,84.68
2017-07-22T01:21:35.834Z,85.11
2017-07-22T01:22:16.280Z,84.82
2017-07-22T01:22:56.765Z,85.11
2017-07-22T01:23:37.271Z,85.11
2017-07-22T01:24:17.767Z,84.82
2017-07-22T01:24:58.271Z,85.49
2017-07-22T01:25:38.754Z,84.82
2017-07-22T01:26:19.247Z,84.63
2017-07-22T01:26:59.746Z,84.63
2017-07-22T01:27:40.223Z,84.91
2017-07-22T01:28:20.710Z,84.82
2017-07-22T01:29:01.221Z,84.91
2017-07-22T01:29:41.707Z,84.91
2017-07-22T01:30:22.216Z,85.11
2017-07-22T01:31:02.652Z,85.11
2017-07-22T01:31:43.170Z,84.91
2017-07-22T01:32:23.657Z,84.91
2017-07-22T01:33:04.153Z,85.21
2017-07-22T01:33:44.692Z,85.11
2017-07-22T01:34:25.225Z,85.11
2017-07-22T01:35:05.624Z,85.4
2017-07-22T01:35:46.171Z,85.4
2017-07-22T01:36:26.630Z,85.21
2017-07-22T01:37:07.158Z,85.06
2017-07-22T01:37:47.673Z,85.06
2017-07-22T01:38:28.199Z,84.88
2017-07-22T01:39:08.680Z,85.84
2017-07-22T01:39:49.150Z,85.94
2017-07-22T01:40:29.597Z,85.84
2017-07-22T01:41:10.110Z,85.55
2017-07-22T01:41:50.681Z,85.45
2017-07-22T01:42:31.162Z,86.03
2017-07-22T01:43:11.619Z,86.03
2017-07-22T01:43:52.127Z,86.13
2017-07-22T01:44:32.607Z,86.03
2017-07-22T01:45:13.094Z,86.13
2017-07-22T01:45:53.546Z,86.52
2017-07-22T01:46:34.090Z,86.28
2017-07-22T01:47:14.556Z,86.32
2017-07-22T01:47:55.106Z,86.22
2017-07-22T01:48:35.552Z,86.22
2017-07-22T01:49:16.049Z,86.22
2017-07-22T01:49:56.553Z,86.71
2017-07-22T01:50:37.099Z,86.61
2017-07-22T01:51:17.560Z,85.94
2017-07-22T01:51:58.081Z,85.78
2017-07-22T01:52:38.553Z,85.59
2017-07-22T01:53:19.055Z,85.06
2017-07-22T01:53:59.559Z,84.68
2017-07-22T01:54:40.092Z,85.55
2017-07-22T01:55:20.619Z,85.16
2017-07-22T01:56:01.082Z,85.06
2017-07-22T01:56:41.622Z,84.68
2017-07-22T01:57:22.099Z,85.26
2017-07-22T01:58:02.630Z,85.06
2017-07-22T01:58:43.080Z,85.06
2017-07-22T01:59:23.604Z,85.16
2017-07-22T02:00:04.129Z,85.16
2017-07-22T02:00:44.648Z,85.06
2017-07-22T02:01:25.148Z,84.63
2017-07-22T02:02:05.667Z,84.53
2017-07-22T02:02:46.135Z,84.63
2017-07-22T02:03:26.662Z,85.01
2017-07-22T02:04:07.145Z,85.21
2017-07-22T02:04:47.646Z,84.91
2017-07-22T02:05:28.135Z,85.11
2017-07-22T02:06:08.628Z,85.16
2017-07-22T02:06:49.127Z,85.64
2017-07-22T02:07:29.629Z,85.64
2017-07-22T02:08:10.176Z,85.45
2017-07-22T02:08:50.676Z,85.36
2017-07-22T02:09:31.195Z,85.36
2017-07-22T02:10:11.665Z,84.91
2017-07-22T02:10:52.162Z,85.16
2017-07-22T02:11:32.667Z,85.84
2017-07-22T02:12:13.198Z,85.94
2017-07-22T02:12:53.698Z,86.42
2017-07-22T02:13:34.323Z,86.03
2017-07-22T02:14:14.717Z,85.84
2017-07-22T02:14:55.194Z,85.64
2017-07-22T02:15:35.756Z,86.03
2017-07-22T02:16:16.155Z,85.45
2017-07-22T02:16:56.661Z,85.55
2017-07-22T02:17:37.148Z,85.59
2017-07-22T02:18:17.657Z,85.64
2017-07-22T02:18:58.207Z,85.74
2017-07-22T02:19:38.684Z,85.59
2017-07-22T02:20:19.229Z,85.45
2017-07-22T02:20:59.691Z,85.36
2017-07-22T02:21:40.169Z,85.06
2017-07-22T02:22:20.678Z,85.36
2017-07-22T02:23:01.183Z,85.06
2017-07-22T02:23:41.658Z,85.06
2017-07-22T02:24:22.186Z,85.45
2017-07-22T02:25:02.666Z,85.55
2017-07-22T02:25:43.163Z,85.64
2017-07-22T02:26:23.722Z,86.13
2017-07-22T02:27:04.163Z,85.74
2017-07-22T02:27:44.659Z,85.55
2017-07-22T02:28:25.184Z,86.03
2017-07-22T02:29:05.685Z,85.59
2017-07-22T02:29:46.168Z,85.3
2017-07-22T02:30:26.664Z,85.59
2017-07-22T02:31:07.136Z,85.59
2017-07-22T02:31:47.665Z,85.88
2017-07-22T02:32:28.150Z,85.3
2017-07-22T02:33:08.633Z,85.59
2017-07-22T02:33:49.168Z,85.3
2017-07-22T02:34:29.678Z,85.4
2017-07-22T02:35:10.215Z,85.49
2017-07-22T02:35:50.686Z,85.49
2017-07-22T02:36:31.314Z,85.26
2017-07-22T02:37:11.779Z,85.94
2017-07-22T02:37:52.299Z,86.03
2017-07-22T02:38:32.786Z,85.59
2017-07-22T02:39:13.401Z,86.03
2017-07-22T02:39:53.906Z,86.61
2017-07-22T02:40:34.432Z,85.84
2017-07-22T02:41:14.927Z,86.22
2017-07-22T02:41:55.449Z,86.61
2017-07-22T02:42:35.942Z,87.19
2017-07-22T02:43:16.480Z,86.71
2017-07-22T02:43:56.958Z,87
2017-07-22T02:44:37.471Z,86.42
2017-07-22T02:45:18.004Z,86.52
2017-07-22T02:45:58.495Z,86.42
2017-07-22T02:46:39.031Z,87.09
2017-07-22T02:47:19.507Z,86.8
2017-07-22T02:48:00.038Z,86.8
2017-07-22T02:48:40.542Z,86.22
2017-07-22T02:49:21.039Z,86.32
2017-07-22T02:50:01.527Z,86.13
2017-07-22T02:50:42.091Z,85.55
2017-07-22T02:51:22.607Z,86.42
2017-07-22T02:52:03.103Z,86.9
2017-07-22T02:52:43.584Z,86.71
2017-07-22T02:53:24.155Z,86.13
2017-07-22T02:54:04.585Z,85.94
2017-07-22T02:54:45.067Z,86.03
2017-07-22T02:55:25.556Z,86.8
2017-07-22T02:56:06.129Z,86.61
2017-07-22T02:56:46.579Z,86.32
2017-07-22T02:57:27.049Z,87
2017-07-22T02:58:07.579Z,86.8
2017-07-22T02:58:48.060Z,86.61
2017-07-22T02:59:28.580Z,87.09
2017-07-22T03:00:09.077Z,86.42
2017-07-22T03:00:49.602Z,87.29
2017-07-22T03:01:30.109Z,86.8
2017-07-22T03:02:10.633Z,86.71
2017-07-22T03:02:51.093Z,86.71
2017-07-22T03:03:31.582Z,87
2017-07-22T03:04:12.095Z,86.8
2017-07-22T03:04:52.612Z,86.9
2017-07-22T03:05:33.137Z,86.52
2017-07-22T03:06:13.607Z,86.8
2017-07-22T03:06:54.094Z,86.42
2017-07-22T03:07:34.648Z,85.55
2017-07-22T03:08:15.124Z,86.03
2017-07-22T03:08:55.643Z,86.13
2017-07-22T03:09:36.143Z,86.8
2017-07-22T03:10:16.627Z,86.9
2017-07-22T03:10:57.133Z,86.71
2017-07-22T03:11:37.627Z,86.8
2017-07-22T03:12:18.144Z,86.32
2017-07-22T03:12:58.690Z,86.9
2017-07-22T03:13:39.174Z,86.57
2017-07-22T03:14:19.637Z,87.05
2017-07-22T03:15:00.236Z,86.42
2017-07-22T03:15:40.782Z,86.86
2017-07-22T03:16:21.251Z,86.42
2017-07-22T03:17:01.768Z,87.09
2017-07-22T03:17:42.243Z,87.05
2017-07-22T03:18:22.771Z,86.86
2017-07-22T03:19:03.225Z,87.24
2017-07-22T03:19:43.738Z,87.09
2017-07-22T03:20:24.224Z,86.66
2017-07-22T03:21:04.740Z,86.52
2017-07-22T03:21:45.248Z,86.86
2017-07-22T03:22:25.750Z,86.52
2017-07-22T03:23:06.268Z,86.86
2017-07-22T03:23:46.753Z,86.66
2017-07-22T03:24:27.277Z,86.47
2017-07-22T03:25:07.786Z,86.47
2017-07-22T03:25:48.283Z,86.61
2017-07-22T03:26:28.809Z,86.61
2017-07-22T03:27:09.262Z,86.9
2017-07-22T03:27:49.777Z,86.61
2017-07-22T03:28:30.287Z,86.03
2017-07-22T03:29:10.799Z,85.89
2017-07-22T03:29:51.305Z,86.18
2017-07-22T03:30:31.796Z,86.86
2017-07-22T03:31:12.319Z,87.05
2017-07-22T03:31:52.818Z,86.96
2017-07-22T03:32:33.320Z,86.57
2017-07-22T03:33:13.816Z,86.86
2017-07-22T03:33:54.317Z,86.96
2017-07-22T03:34:34.800Z,87.05
2017-07-22T03:35:15.312Z,86.47
2017-07-22T03:35:55.836Z,86.57
2017-07-22T03:36:36.385Z,86.86
2017-07-22T03:37:16.887Z,87.24
2017-07-22T03:37:57.395Z,87.15
2017-07-22T03:38:37.880Z,86.96
2017-07-22T03:39:18.392Z,86.86
2017-07-22T03:39:58.879Z,86.86
2017-07-22T03:40:39.396Z,87.05
2017-07-22T03:41:19.859Z,87.24
2017-07-22T03:42:00.401Z,87.24
2017-07-22T03:42:40.962Z,87.34
2017-07-22T03:43:21.404Z,86.66
2017-07-22T03:44:01.888Z,86.86
2017-07-22T03:44:42.418Z,86.86
2017-07-22T03:45:22.908Z,87.24
2017-07-22T03:46:03.421Z,87.63
2017-07-22T03:46:43.958Z,87.53
2017-07-22T03:47:24.442Z,87.73
2017-07-22T03:48:04.947Z,86.86
2017-07-22T03:48:45.515Z,87.24
2017-07-22T03:49:26.005Z,87.73
2017-07-22T03:50:06.501Z,88.02
2017-07-22T03:50:47.033Z,87.63
2017-07-22T03:51:27.516Z,88.21
2017-07-22T03:52:08.022Z,87.73
2017-07-22T03:52:48.745Z,87.63
2017-07-22T03:53:29.398Z,87.34
2017-07-22T03:54:09.939Z,87.4
2017-07-22T03:54:50.437Z,87.59
2017-07-22T03:55:30.932Z,88.17
2017-07-22T03:56:11.415Z,87.97
2017-07-22T03:56:51.934Z,88.45
2017-07-22T03:57:32.548Z,88.55
2017-07-22T03:58:13.132Z,88.07
2017-07-22T03:58:53.607Z,88.55
2017-07-22T03:59:34.172Z,88.45
2017-07-22T04:00:14.635Z,88.07
2017-07-22T04:00:55.109Z,87.88
2017-07-22T04:01:35.590Z,88.45
2017-07-22T04:02:16.147Z,87.78
2017-07-22T04:02:56.617Z,87.59
2017-07-22T04:03:37.189Z,88.45
2017-07-22T04:04:17.705Z,88.26
2017-07-22T04:04:58.235Z,88.26
2017-07-22T04:05:39.128Z,88.36
2017-07-22T04:06:19.851Z,88.55
2017-07-22T04:07:00.298Z,88.26
2017-07-22T04:07:40.821Z,88.07
2017-07-22T04:08:21.340Z,87.97
2017-07-22T04:09:01.932Z,88.93
2017-07-22T04:09:42.395Z,88.93
2017-07-22T04:10:22.837Z,89.03
2017-07-22T04:11:03.349Z,89.09
2017-07-22T04:11:43.862Z,88.51
2017-07-22T04:12:24.369Z,88.89
2017-07-22T04:13:04.862Z,89.67
2017-07-22T04:13:45.381Z,88.99
2017-07-22T04:14:25.844Z,89.42
2017-07-22T04:15:06.366Z,89.42
2017-07-22T04:15:46.867Z,88.75
2017-07-22T04:16:27.345Z,88.84
2017-07-22T04:17:07.906Z,88.93
2017-07-22T04:17:48.398Z,88.65
2017-07-22T04:18:28.896Z,88.93
2017-07-22T04:19:09.403Z,89.32
2017-07-22T04:19:49.858Z,88.45
2017-07-22T04:20:30.402Z,88.93
2017-07-22T04:21:10.925Z,88.31
2017-07-22T04:21:51.402Z,88.07
2017-07-22T04:22:31.904Z,88.36
2017-07-22T04:23:12.441Z,88.17
2017-07-22T04:23:52.909Z,88.26
2017-07-22T04:24:33.407Z,88.45
2017-07-22T04:25:13.910Z,88.55
2017-07-22T04:25:54.425Z,88.84
2017-07-22T04:26:34.953Z,88.84
2017-07-22T04:27:15.439Z,88.07
2017-07-22T04:27:55.957Z,88.17
2017-07-22T04:28:36.486Z,88.21
2017-07-22T04:29:16.930Z,87.68
2017-07-22T04:29:57.450Z,87.49
2017-07-22T04:30:37.964Z,88.02
2017-07-22T04:31:18.610Z,87.73
2017-07-22T04:31:59.113Z,88.11
2017-07-22T04:32:39.652Z,88.02
2017-07-22T04:33:20.144Z,87.92
2017-07-22T04:34:00.595Z,87.44
2017-07-22T04:34:41.165Z,87.63
2017-07-22T04:35:21.772Z,87.15
2017-07-22T04:36:02.166Z,87.63
2017-07-22T04:36:42.730Z,87.53
2017-07-22T04:37:23.203Z,87.49
2017-07-22T04:38:03.868Z,88.36
2017-07-22T04:38:44.384Z,88.55
2017-07-22T04:39:24.843Z,87.59
2017-07-22T04:40:05.401Z,88.11
2017-07-22T04:40:45.921Z,87.73
2017-07-22T04:41:26.355Z,87.44
2017-07-22T04:42:06.879Z,87.63
2017-07-22T04:42:47.354Z,87.44
2017-07-22T04:43:27.886Z,87.44
2017-07-22T04:44:08.350Z,87.63
2017-07-22T04:44:48.917Z,87.63
2017-07-22T04:45:29.367Z,87.63
2017-07-22T04:46:09.880Z,87.73
2017-07-22T04:46:50.364Z,87.44
2017-07-22T04:47:30.812Z,87.92
2017-07-22T04:48:11.309Z,87.53
2017-07-22T04:48:51.839Z,87.82
2017-07-22T04:49:32.523Z,88.69
2017-07-22T04:50:12.978Z,87.53
2017-07-22T04:50:53.506Z,87.92
2017-07-22T04:51:34.008Z,87.53
2017-07-22T04:52:14.650Z,87.63
2017-07-22T04:52:55.216Z,87.63
2017-07-22T04:53:35.647Z,87.44
2017-07-22T04:54:16.177Z,87.34
2017-07-22T04:54:56.696Z,87.63
2017-07-22T04:55:37.124Z,87.53
2017-07-22T04:56:17.632Z,87.44
2017-07-22T04:56:58.120Z,87.63
2017-07-22T04:57:38.631Z,87.53
2017-07-22T04:58:19.120Z,87.44
2017-07-22T04:58:59.627Z,86.38
2017-07-22T04:59:40.118Z,86.76
2017-07-22T05:00:20.686Z,87.24
2017-07-22T05:01:01.258Z,86.47
2017-07-22T05:01:41.763Z,86.66
2017-07-22T05:02:22.209Z,86.61
2017-07-22T05:03:02.738Z,86.86
2017-07-22T05:03:43.280Z,86.86
2017-07-22T05:04:23.773Z,86.38
2017-07-22T05:05:04.259Z,86.57
2017-07-22T05:05:44.733Z,86.47
2017-07-22T05:06:25.243Z,86.66
2017-07-22T05:07:05.722Z,86.47
2017-07-22T05:07:46.245Z,86.9
2017-07-22T05:08:26.746Z,86.22
2017-07-22T05:09:07.236Z,85.64
2017-07-22T05:09:47.757Z,85.74
2017-07-22T05:10:28.245Z,86.42
2017-07-22T05:11:08.801Z,85.55
2017-07-22T05:11:49.260Z,85.55
2017-07-22T05:12:29.803Z,84.88
2017-07-22T05:13:10.326Z,85.06
2017-07-22T05:13:50.837Z,85.01
2017-07-22T05:14:31.346Z,84.82
2017-07-22T05:15:11.827Z,84.72
2017-07-22T05:15:52.345Z,83.66
2017-07-22T05:16:32.823Z,83.95
2017-07-22T05:17:13.329Z,83.22
2017-07-22T05:17:53.848Z,83.03
2017-07-22T05:18:34.330Z,83.31
2017-07-22T05:19:14.857Z,82.64
2017-07-22T05:19:55.326Z,82.78
2017-07-22T05:20:35.852Z,82.54
2017-07-22T05:21:16.310Z,82.54
2017-07-22T05:21:56.841Z,83.41
2017-07-22T05:22:37.312Z,82.83
2017-07-22T05:23:17.788Z,82.35
2017-07-22T05:23:58.256Z,82.35
2017-07-22T05:24:38.799Z,82.73
2017-07-22T05:25:19.249Z,82.15
2017-07-22T05:25:59.751Z,82.64
2017-07-22T05:26:40.251Z,82.35
2017-07-22T05:27:20.809Z,82.29
2017-07-22T05:28:01.288Z,81.81
2017-07-22T05:28:41.763Z,81.62
2017-07-22T05:29:22.253Z,80.94
2017-07-22T05:30:02.774Z,81.52
2017-07-22T05:30:43.264Z,81.32
2017-07-22T05:31:23.773Z,81.52
2017-07-22T05:32:04.269Z,81.52
2017-07-22T05:32:44.738Z,80.94
2017-07-22T05:33:25.444Z,80.84
2017-07-22T05:34:05.841Z,80.84
2017-07-22T05:34:46.337Z,80.46
2017-07-22T05:35:26.821Z,81.04
2017-07-22T05:36:07.364Z,81.04
2017-07-22T05:36:47.852Z,81.23
2017-07-22T05:37:28.314Z,80.36
2017-07-22T05:38:08.783Z,81.32
2017-07-22T05:38:49.343Z,81.52
2017-07-22T05:39:29.846Z,81.52
2017-07-22T05:40:10.360Z,81.32
2017-07-22T05:40:50.906Z,81.42
2017-07-22T05:41:31.419Z,81.52
2017-07-22T05:42:11.962Z,81.52
2017-07-22T05:42:52.543Z,81.13
2017-07-22T05:43:33.105Z,80.69
2017-07-22T05:44:13.573Z,80.36
2017-07-22T05:44:54.159Z,81.13
2017-07-22T05:45:34.662Z,80.84
2017-07-22T05:46:15.188Z,80.26
2017-07-22T05:46:55.704Z,80.46
2017-07-22T05:47:36.200Z,81.04
2017-07-22T05:48:16.682Z,80.07
2017-07-22T05:48:57.194Z,81.04
2017-07-22T05:49:37.668Z,79.91
2017-07-22T05:50:18.170Z,80.2
2017-07-22T05:50:58.938Z,80.11
2017-07-22T05:51:39.462Z,79.33
2017-07-22T05:52:19.968Z,79.33
2017-07-22T05:53:00.476Z,79.08
2017-07-22T05:53:40.958Z,78.69
2017-07-22T05:54:21.444Z,77.76
2017-07-22T05:55:01.975Z,77.09
2017-07-22T05:55:42.476Z,76.25
2017-07-22T05:56:23.188Z,75.48
2017-07-22T05:57:03.665Z,74.9
2017-07-22T05:57:44.181Z,74.51
2017-07-22T05:58:24.667Z,74.26
2017-07-22T05:59:05.182Z,74.32
2017-07-22T05:59:45.686Z,75.23
2017-07-22T06:00:26.192Z,74
2017-07-22T06:01:06.697Z,72.93
2017-07-22T06:01:47.204Z,72.64
2017-07-22T06:02:27.786Z,72
2017-07-22T06:03:08.361Z,71.7
2017-07-22T06:03:48.825Z,70.73
2017-07-22T06:04:29.328Z,70.29
2017-07-22T06:05:09.817Z,70.09
2017-07-22T06:05:50.341Z,69.06
2017-07-22T06:06:30.807Z,69.06
2017-07-22T06:07:11.324Z,68.67
2017-07-22T06:07:51.870Z,68.51
2017-07-22T06:08:32.338Z,67.63
2017-07-22T06:09:12.900Z,67.73
2017-07-22T06:09:53.471Z,67.34
2017-07-22T06:10:33.910Z,67.18
2017-07-22T06:11:14.423Z,66.21
2017-07-22T06:11:54.967Z,67.08
2017-07-22T06:12:35.343Z,66.4
2017-07-22T06:13:15.847Z,66.02
2017-07-22T06:13:57.324Z,66.11
2017-07-22T06:14:37.853Z,66.14
2017-07-22T06:15:18.569Z,66.14
2017-07-22T06:15:59.741Z,66.02
2017-07-22T06:16:40.231Z,65.85
2017-07-22T06:17:20.741Z,65.17
2017-07-22T06:18:01.225Z,65.27
2017-07-22T06:18:41.724Z,65.27
2017-07-22T06:19:22.226Z,64.72
2017-07-22T06:20:02.933Z,63.65
2017-07-22T06:20:43.280Z,63.65
2017-07-22T06:21:23.735Z,62.87
2017-07-22T06:22:04.938Z,63.29
2017-07-22T06:22:45.484Z,63.16
2017-07-22T06:23:25.966Z,63.35
2017-07-22T06:24:06.524Z,64.13
2017-07-22T06:24:47.329Z,64.04
2017-07-22T06:25:27.681Z,63.35
2017-07-22T06:26:08.439Z,63.65
2017-07-22T06:26:52.116Z,63.94
2017-07-22T06:27:32.651Z,64.23
2017-07-22T06:29:37.963Z,63.35
2017-07-22T06:30:19.161Z,63.35
2017-07-22T06:30:59.712Z,63.94
2017-07-22T06:31:40.306Z,63.62
2017-07-22T06:32:20.823Z,63.62
2017-07-22T06:33:02.117Z,63.9
2017-07-22T06:33:42.642Z,63.81
2017-07-22T06:34:23.130Z,63.65
2017-07-22T06:35:03.635Z,63.84
2017-07-22T06:35:44.180Z,63.65
2017-07-22T06:36:24.676Z,63.94
2017-07-22T06:37:05.196Z,63.55
2017-07-22T06:37:45.686Z,63.26
2017-07-22T06:38:26.198Z,63.42
2017-07-22T06:39:06.695Z,63.75
2017-07-22T06:39:47.187Z,63.26
2017-07-22T06:40:27.670Z,63.26
2017-07-22T06:41:08.186Z,63.35
2017-07-22T06:41:48.699Z,63.16
2017-07-22T06:42:29.203Z,63.55
2017-07-22T06:43:09.641Z,63.55
2017-07-22T06:43:50.173Z,63.75
2017-07-22T06:44:30.628Z,63.45
2017-07-22T06:45:11.226Z,63.65
2017-07-22T06:45:51.632Z,63.62
2017-07-22T06:46:32.179Z,63.81
2017-07-22T06:47:12.756Z,64.1
2017-07-22T06:47:53.140Z,63.9
2017-07-22T06:48:33.642Z,63.71
2017-07-22T06:49:14.134Z,63.81
2017-07-22T06:49:54.668Z,64.17
2017-07-22T06:50:35.977Z,64.95
2017-07-22T06:51:16.596Z,64.49
2017-07-22T06:51:57.102Z,64.59
2017-07-22T06:52:37.592Z,64.39
2017-07-22T06:53:18.128Z,64.2
2017-07-22T06:53:58.684Z,63.13
2017-07-22T06:54:39.174Z,63.35
2017-07-22T06:55:19.666Z,63.55
2017-07-22T06:56:00.298Z,63.65
2017-07-22T06:56:40.690Z,62.96
2017-07-22T06:57:21.223Z,62.57
2017-07-22T06:58:01.728Z,62.87
2017-07-22T06:58:42.246Z,63.06
2017-07-22T06:59:22.695Z,63.16
2017-07-22T07:00:03.216Z,63.06
2017-07-22T07:00:43.839Z,63.06
2017-07-22T07:01:24.244Z,62.57
2017-07-22T07:02:04.700Z,62.67
2017-07-22T07:02:45.510Z,62.48
2017-07-22T07:03:26.213Z,62.48
2017-07-22T07:04:06.726Z,62.87
2017-07-22T07:04:47.237Z,62.38
2017-07-22T07:05:27.794Z,62.38
2017-07-22T07:06:08.640Z,61.8
2017-07-22T07:06:49.177Z,61.7
2017-07-22T07:07:29.675Z,61.9
2017-07-22T07:08:10.227Z,61.8
2017-07-22T07:08:50.721Z,61.9
2017-07-22T07:09:31.220Z,61.63
2017-07-22T07:10:11.741Z,62.09
2017-07-22T07:10:52.212Z,62.09
2017-07-22T07:11:32.732Z,61.7
2017-07-22T07:12:13.188Z,61.41
2017-07-22T07:12:55.298Z,62.19
2017-07-22T07:13:36.575Z,62.38
2017-07-22T07:14:17.113Z,61.8
2017-07-22T07:14:57.665Z,61.8
2017-07-22T07:15:38.219Z,60.72
2017-07-22T07:16:18.665Z,61.8
2017-07-22T07:16:59.217Z,62.38
2017-07-22T07:17:39.690Z,61.8
2017-07-22T07:18:20.243Z,61.99
2017-07-22T07:19:00.731Z,61.9
2017-07-22T07:19:41.243Z,61.8
2017-07-22T07:20:21.831Z,61.9
2017-07-22T07:21:02.278Z,61.02
2017-07-22T07:21:42.784Z,61.21
2017-07-22T07:22:23.278Z,61.11
2017-07-22T07:23:03.781Z,62.74
2017-07-22T07:23:44.294Z,62.16
2017-07-22T07:24:24.805Z,62.93
2017-07-22T07:25:05.319Z,62.93
2017-07-22T07:25:45.796Z,62.84
2017-07-22T07:26:26.318Z,62.45
2017-07-22T07:27:06.800Z,63.39
2017-07-22T07:27:47.314Z,63.29
2017-07-22T07:28:27.817Z,62.84
2017-07-22T07:29:08.311Z,63.13
2017-07-22T07:29:48.847Z,62.35
2017-07-22T07:30:29.373Z,62.54
2017-07-22T07:31:09.822Z,62.54
2017-07-22T07:31:50.335Z,63.16
2017-07-22T07:32:30.811Z,62.54
2017-07-22T07:33:11.352Z,63.23
2017-07-22T07:33:52.758Z,63.03
2017-07-22T07:34:33.240Z,62.57
2017-07-22T07:35:13.789Z,62.35
2017-07-22T07:35:54.319Z,62.45
2017-07-22T07:36:34.816Z,62.54
2017-07-22T07:37:15.579Z,62.26
2017-07-22T07:37:56.035Z,62.26
2017-07-22T07:38:36.527Z,62.77
2017-07-22T07:39:17.090Z,62.57
2017-07-22T07:39:57.588Z,62.57
2017-07-22T07:40:38.059Z,62.09
2017-07-22T07:41:18.542Z,63.03
2017-07-22T07:41:59.083Z,63.23
2017-07-22T07:42:39.580Z,62.96
2017-07-22T07:43:20.095Z,62.87
2017-07-22T07:44:00.594Z,62.67
2017-07-22T07:44:41.149Z,63.35
2017-07-22T07:45:21.598Z,63.71
2017-07-22T07:46:02.144Z,63.23
2017-07-22T07:46:42.597Z,63.75
2017-07-22T07:47:23.139Z,63.13
2017-07-22T07:48:03.577Z,63.32
2017-07-22T07:48:44.108Z,63.71
2017-07-22T07:49:24.618Z,63.9
2017-07-22T07:50:05.129Z,63.42
2017-07-22T07:50:45.642Z,63.32
2017-07-22T07:51:26.125Z,63.06
2017-07-22T07:52:06.640Z,62.87
2017-07-22T07:52:47.152Z,63.16
2017-07-22T07:53:27.657Z,63.32
2017-07-22T07:54:08.193Z,63.62
2017-07-22T07:54:48.665Z,63.35
2017-07-22T07:55:29.127Z,63.26
2017-07-22T07:56:09.594Z,62.77
2017-07-22T07:56:50.107Z,62.67
2017-07-22T07:57:30.577Z,62.67
2017-07-22T07:58:11.106Z,62.57
2017-07-22T07:58:51.582Z,62.38
2017-07-22T07:59:32.129Z,62.57
2017-07-22T08:00:12.684Z,63.9
2017-07-22T08:00:53.148Z,64.39
2017-07-22T08:01:33.669Z,63.9
2017-07-22T08:02:14.140Z,63.71
2017-07-22T08:02:54.736Z,63.81
2017-07-22T08:03:35.244Z,63.55
2017-07-22T08:04:15.778Z,63.84
2017-07-22T08:04:56.284Z,63.16
2017-07-22T08:05:36.785Z,63.55
2017-07-22T08:06:17.291Z,63.45
2017-07-22T08:06:57.820Z,62.99
2017-07-22T08:07:38.354Z,63.68
2017-07-22T08:08:18.849Z,62.38
2017-07-22T08:08:59.337Z,63.45
2017-07-22T08:09:40.022Z,62.77
2017-07-22T08:10:20.525Z,63.26
2017-07-22T08:11:01.046Z,63.35
2017-07-22T08:11:41.556Z,63.26
2017-07-22T08:12:22.104Z,63.16
2017-07-22T08:13:02.545Z,62.96
2017-07-22T08:13:43.132Z,62.57
2017-07-22T08:14:23.818Z,62.6
2017-07-22T08:15:04.273Z,62.51
2017-07-22T08:15:44.758Z,62.6
2017-07-22T08:16:25.304Z,62.96
2017-07-22T08:17:05.809Z,62.67
2017-07-22T08:17:46.488Z,63.26
2017-07-22T08:18:27.009Z,63.26
2017-07-22T08:19:08.319Z,63.62
2017-07-22T08:19:48.844Z,64
2017-07-22T08:20:29.413Z,64.39
2017-07-22T08:21:09.873Z,64
2017-07-22T08:21:50.348Z,63.94
2017-07-22T08:22:30.857Z,63.55
2017-07-22T08:23:11.358Z,63.65
2017-07-22T08:23:51.837Z,63.45
2017-07-22T08:24:32.323Z,63.65
2017-07-22T08:25:12.850Z,62.77
2017-07-22T08:25:53.344Z,63.35
2017-07-22T08:26:33.883Z,63.35
2017-07-22T08:27:14.510Z,63.35
2017-07-22T08:27:54.944Z,63.52
2017-07-22T08:28:35.487Z,63.42
2017-07-22T08:29:15.955Z,63.55
2017-07-22T08:29:56.482Z,63.32
2017-07-22T08:30:36.950Z,63.32
2017-07-22T08:31:17.497Z,63.23
2017-07-22T08:31:57.937Z,63.23
2017-07-22T08:32:38.462Z,63.32
2017-07-22T08:33:18.970Z,63.62
2017-07-22T08:33:59.454Z,63.32
2017-07-22T08:34:39.965Z,63.13
2017-07-22T08:35:20.585Z,63.62
2017-07-22T08:36:01.094Z,63.16
2017-07-22T08:36:41.622Z,63.55
2017-07-22T08:37:22.263Z,62.67
2017-07-22T08:38:02.697Z,62.67
2017-07-22T08:38:43.270Z,62.09
2017-07-22T08:39:23.761Z,62.38
2017-07-22T08:40:04.281Z,62.38
2017-07-22T08:40:44.785Z,62.09
2017-07-22T08:41:25.347Z,61.63
2017-07-22T08:42:05.959Z,61.83
2017-07-22T08:42:46.414Z,61.83
2017-07-22T08:43:26.999Z,61.02
2017-07-22T08:44:07.499Z,61.54
2017-07-22T08:44:47.985Z,61.93